sensor_id;sensor_type;location;lat;lon;timestamp;P1;durP1;ratioP1;P2;durP2;ratioP2
23252;SDS011;11795;47.054;15.408;2023-05-20T00:00:00;5.3;;;4.7;;
23252;SDS011;11795;47.054;15.408;2023-05-20T00:02:00;5.3;;;4.8;;
23252;SDS011;11795;47.054;15.408;2023-05-20T00:04:00;5.3;;;4.8;;
23252;SDS011;11795;47.054;15.408;2023-05-20T00:06:00;5.8;;;4.7;;
23252;SDS011;11795;47.054;15.408;2023-05-20T00:08:03;5.8;;;4.7;;
23252;SDS011;11795;47.054;15.408;2023-05-20T00:10:00;5.8;;;4.7;;
23252;SDS011;11795;47.054;15.408;2023-05-20T00:12:00;6.2;;;4.8;;
23252;SDS011;11795;47.054;15.408;2023-05-20T00:14:00;6.2;;;4.8;;
23252;SDS011;11795;47.054;15.408;2023-05-20T00:16:00;5.3;;;4.8;;
23252;SDS011;11795;47.054;15.408;2023-05-20T00:18:00;5.3;;;4.8;;
23252;SDS011;11795;47.054;15.408;2023-05-20T00:20:00;5.3;;;4.8;;
23252;SDS011;11795;47.054;15.408;2023-05-20T00:22:00;5.7;;;4.6;;
23252;SDS011;11795;47.054;15.408;2023-05-20T00:24:00;5.7;;;4.6;;
23252;SDS011;11795;47.054;15.408;2023-05-20T00:26:00;4.8;;;4.4;;
23252;SDS011;11795;47.054;15.408;2023-05-20T00:28:00;4.8;;;4.4;;
23252;SDS011;11795;47.054;15.408;2023-05-20T00:30:00;4.8;;;4.4;;
23252;SDS011;11795;47.054;15.408;2023-05-20T00:32:00;4.7;;;4.3;;
23252;SDS011;11795;47.054;15.408;2023-05-20T00:34:00;4.7;;;4.3;;
23252;SDS011;11795;47.054;15.408;2023-05-20T00:36:00;5.4;;;4.5;;
23252;SDS011;11795;47.054;15.408;2023-05-20T00:38:00;5.4;;;4.5;;
23252;SDS011;11795;47.054;15.408;2023-05-20T00:40:00;5.4;;;4.5;;
23252;SDS011;11795;47.054;15.408;2023-05-20T00:42:02;5.3;;;4.5;;
23252;SDS011;11795;47.054;15.408;2023-05-20T00:44:00;5.3;;;4.5;;
23252;SDS011;11795;47.054;15.408;2023-05-20T00:46:00;4.7;;;4.2;;
23252;SDS011;11795;47.054;15.408;2023-05-20T00:48:03;4.7;;;4.2;;
23252;SDS011;11795;47.054;15.408;2023-05-20T00:50:00;4.7;;;4.2;;
23252;SDS011;11795;47.054;15.408;2023-05-20T00:52:00;5.9;;;4.9;;
23252;SDS011;11795;47.054;15.408;2023-05-20T00:54:00;5.9;;;4.9;;
23252;SDS011;11795;47.054;15.408;2023-05-20T00:56:00;5.2;;;4.8;;
23252;SDS011;11795;47.054;15.408;2023-05-20T00:58:00;5.2;;;4.8;;
23252;SDS011;11795;47.054;15.408;2023-05-20T01:00:00;5.2;;;4.8;;
23252;SDS011;11795;47.054;15.408;2023-05-20T01:02:00;5.6;;;4.7;;
23252;SDS011;11795;47.054;15.408;2023-05-20T01:04:00;5.6;;;4.7;;
23252;SDS011;11795;47.054;15.408;2023-05-20T01:06:00;5.7;;;4.7;;
23252;SDS011;11795;47.054;15.408;2023-05-20T01:08:00;5.7;;;4.7;;
23252;SDS011;11795;47.054;15.408;2023-05-20T01:10:00;5.7;;;4.7;;
23252;SDS011;11795;47.054;15.408;2023-05-20T01:12:02;5.2;;;4.6;;
23252;SDS011;11795;47.054;15.408;2023-05-20T01:14:01;5.2;;;4.6;;
23252;SDS011;11795;47.054;15.408;2023-05-20T01:16:00;5.1;;;4.6;;
23252;SDS011;11795;47.054;15.408;2023-05-20T01:18:00;5.1;;;4.6;;
23252;SDS011;11795;47.054;15.408;2023-05-20T01:20:00;5.1;;;4.6;;
23252;SDS011;11795;47.054;15.408;2023-05-20T01:22:01;4.8;;;4.4;;
23252;SDS011;11795;47.054;15.408;2023-05-20T01:24:00;4.8;;;4.4;;
23252;SDS011;11795;47.054;15.408;2023-05-20T01:26:00;4.6;;;4.2;;
23252;SDS011;11795;47.054;15.408;2023-05-20T01:28:00;4.6;;;4.2;;
23252;SDS011;11795;47.054;15.408;2023-05-20T01:30:00;4.6;;;4.2;;
23252;SDS011;11795;47.054;15.408;2023-05-20T01:32:00;5.3;;;4.8;;
23252;SDS011;11795;47.054;15.408;2023-05-20T01:34:00;5.3;;;4.8;;
23252;SDS011;11795;47.054;15.408;2023-05-20T01:36:00;5.4;;;4.9;;
23252;SDS011;11795;47.054;15.408;2023-05-20T01:38:00;5.4;;;4.9;;
23252;SDS011;11795;47.054;15.408;2023-05-20T01:40:00;5.4;;;4.9;;
23252;SDS011;11795;47.054;15.408;2023-05-20T01:42:01;5.5;;;5.0;;
23252;SDS011;11795;47.054;15.408;2023-05-20T01:44:00;5.5;;;5.0;;
23252;SDS011;11795;47.054;15.408;2023-05-20T01:46:04;5.5;;;5.0;;
23252;SDS011;11795;47.054;15.408;2023-05-20T01:48:01;5.5;;;5.0;;
23252;SDS011;11795;47.054;15.408;2023-05-20T01:50:00;5.5;;;5.0;;
23252;SDS011;11795;47.054;15.408;2023-05-20T01:52:00;5.7;;;4.8;;
23252;SDS011;11795;47.054;15.408;2023-05-20T01:54:00;5.7;;;4.8;;
23252;SDS011;11795;47.054;15.408;2023-05-20T01:56:00;5.9;;;5.2;;
23252;SDS011;11795;47.054;15.408;2023-05-20T01:58:00;5.9;;;5.2;;
23252;SDS011;11795;47.054;15.408;2023-05-20T02:00:00;5.9;;;5.2;;
23252;SDS011;11795;47.054;15.408;2023-05-20T02:02:00;5.1;;;4.7;;
23252;SDS011;11795;47.054;15.408;2023-05-20T02:04:00;5.1;;;4.7;;
23252;SDS011;11795;47.054;15.408;2023-05-20T02:06:00;5.4;;;4.6;;
23252;SDS011;11795;47.054;15.408;2023-05-20T02:08:00;5.4;;;4.6;;
23252;SDS011;11795;47.054;15.408;2023-05-20T02:10:00;5.4;;;4.6;;
23252;SDS011;11795;47.054;15.408;2023-05-20T02:12:00;5.1;;;4.7;;
23252;SDS011;11795;47.054;15.408;2023-05-20T02:14:00;5.1;;;4.7;;
23252;SDS011;11795;47.054;15.408;2023-05-20T02:16:00;5.2;;;4.7;;
23252;SDS011;11795;47.054;15.408;2023-05-20T02:18:01;5.2;;;4.7;;
23252;SDS011;11795;47.054;15.408;2023-05-20T02:20:00;5.2;;;4.7;;
23252;SDS011;11795;47.054;15.408;2023-05-20T02:22:00;4.8;;;4.4;;
23252;SDS011;11795;47.054;15.408;2023-05-20T02:24:00;4.8;;;4.4;;
23252;SDS011;11795;47.054;15.408;2023-05-20T02:26:00;5.8;;;5.3;;
23252;SDS011;11795;47.054;15.408;2023-05-20T02:28:00;5.8;;;5.3;;
23252;SDS011;11795;47.054;15.408;2023-05-20T02:30:00;5.8;;;5.3;;
23252;SDS011;11795;47.054;15.408;2023-05-20T02:32:00;5.8;;;5.2;;
23252;SDS011;11795;47.054;15.408;2023-05-20T02:34:00;5.8;;;5.2;;
23252;SDS011;11795;47.054;15.408;2023-05-20T02:36:00;5.6;;;5.0;;
23252;SDS011;11795;47.054;15.408;2023-05-20T02:38:00;5.6;;;5.0;;
23252;SDS011;11795;47.054;15.408;2023-05-20T02:40:00;5.6;;;5.0;;
23252;SDS011;11795;47.054;15.408;2023-05-20T02:42:00;5.3;;;4.8;;
23252;SDS011;11795;47.054;15.408;2023-05-20T02:44:00;5.3;;;4.8;;
23252;SDS011;11795;47.054;15.408;2023-05-20T02:46:00;4.8;;;4.3;;
23252;SDS011;11795;47.054;15.408;2023-05-20T02:48:00;4.8;;;4.3;;
23252;SDS011;11795;47.054;15.408;2023-05-20T02:50:00;4.8;;;4.3;;
23252;SDS011;11795;47.054;15.408;2023-05-20T02:52:00;4.9;;;4.5;;
23252;SDS011;11795;47.054;15.408;2023-05-20T02:54:00;4.9;;;4.5;;
23252;SDS011;11795;47.054;15.408;2023-05-20T02:56:00;4.9;;;4.5;;
23252;SDS011;11795;47.054;15.408;2023-05-20T02:58:00;5.1;;;4.7;;
23252;SDS011;11795;47.054;15.408;2023-05-20T03:00:00;5.1;;;4.7;;
23252;SDS011;11795;47.054;15.408;2023-05-20T03:02:00;5.4;;;4.9;;
23252;SDS011;11795;47.054;15.408;2023-05-20T03:04:00;5.4;;;4.9;;
23252;SDS011;11795;47.054;15.408;2023-05-20T03:06:00;5.4;;;4.9;;
23252;SDS011;11795;47.054;15.408;2023-05-20T03:08:00;4.7;;;4.3;;
23252;SDS011;11795;47.054;15.408;2023-05-20T03:10:02;4.7;;;4.3;;
23252;SDS011;11795;47.054;15.408;2023-05-20T03:12:00;4.9;;;4.4;;
23252;SDS011;11795;47.054;15.408;2023-05-20T03:14:00;4.9;;;4.4;;
23252;SDS011;11795;47.054;15.408;2023-05-20T03:16:00;4.9;;;4.4;;
23252;SDS011;11795;47.054;15.408;2023-05-20T03:18:00;5.5;;;5.0;;
23252;SDS011;11795;47.054;15.408;2023-05-20T03:20:00;5.5;;;5.0;;
23252;SDS011;11795;47.054;15.408;2023-05-20T03:22:00;5.8;;;5.3;;
23252;SDS011;11795;47.054;15.408;2023-05-20T03:24:00;5.8;;;5.3;;
23252;SDS011;11795;47.054;15.408;2023-05-20T03:26:00;5.8;;;5.3;;
23252;SDS011;11795;47.054;15.408;2023-05-20T03:28:00;5.0;;;4.5;;
23252;SDS011;11795;47.054;15.408;2023-05-20T03:30:00;5.0;;;4.5;;
23252;SDS011;11795;47.054;15.408;2023-05-20T03:32:00;5.1;;;4.4;;
23252;SDS011;11795;47.054;15.408;2023-05-20T03:34:00;5.1;;;4.4;;
23252;SDS011;11795;47.054;15.408;2023-05-20T03:36:00;5.1;;;4.4;;
23252;SDS011;11795;47.054;15.408;2023-05-20T03:38:00;5.1;;;4.7;;
23252;SDS011;11795;47.054;15.408;2023-05-20T03:40:00;5.1;;;4.7;;
23252;SDS011;11795;47.054;15.408;2023-05-20T03:42:00;4.6;;;4.2;;
23252;SDS011;11795;47.054;15.408;2023-05-20T03:44:00;4.6;;;4.2;;
23252;SDS011;11795;47.054;15.408;2023-05-20T03:46:00;4.6;;;4.2;;
23252;SDS011;11795;47.054;15.408;2023-05-20T03:48:02;4.3;;;4.0;;
23252;SDS011;11795;47.054;15.408;2023-05-20T03:50:00;4.3;;;4.0;;
23252;SDS011;11795;47.054;15.408;2023-05-20T03:52:00;4.6;;;4.2;;
23252;SDS011;11795;47.054;15.408;2023-05-20T03:54:00;4.6;;;4.2;;
23252;SDS011;11795;47.054;15.408;2023-05-20T03:56:00;4.6;;;4.2;;
23252;SDS011;11795;47.054;15.408;2023-05-20T03:58:00;4.4;;;4.1;;
23252;SDS011;11795;47.054;15.408;2023-05-20T04:00:01;4.4;;;4.1;;
23252;SDS011;11795;47.054;15.408;2023-05-20T04:02:00;4.7;;;4.3;;
23252;SDS011;11795;47.054;15.408;2023-05-20T04:04:00;4.7;;;4.3;;
23252;SDS011;11795;47.054;15.408;2023-05-20T04:06:00;4.7;;;4.3;;
23252;SDS011;11795;47.054;15.408;2023-05-20T04:08:00;5.1;;;4.6;;
23252;SDS011;11795;47.054;15.408;2023-05-20T04:10:00;5.1;;;4.6;;
23252;SDS011;11795;47.054;15.408;2023-05-20T04:12:00;5.0;;;4.5;;
23252;SDS011;11795;47.054;15.408;2023-05-20T04:14:00;5.0;;;4.5;;
23252;SDS011;11795;47.054;15.408;2023-05-20T04:16:01;5.0;;;4.5;;
23252;SDS011;11795;47.054;15.408;2023-05-20T04:18:00;5.5;;;4.9;;
23252;SDS011;11795;47.054;15.408;2023-05-20T04:20:00;5.5;;;4.9;;
23252;SDS011;11795;47.054;15.408;2023-05-20T04:22:00;5.9;;;5.2;;
23252;SDS011;11795;47.054;15.408;2023-05-20T04:24:00;5.9;;;5.2;;
23252;SDS011;11795;47.054;15.408;2023-05-20T04:26:01;5.9;;;5.2;;
23252;SDS011;11795;47.054;15.408;2023-05-20T04:28:00;5.7;;;4.9;;
23252;SDS011;11795;47.054;15.408;2023-05-20T04:30:01;5.7;;;4.9;;
23252;SDS011;11795;47.054;15.408;2023-05-20T04:32:00;5.5;;;5.0;;
23252;SDS011;11795;47.054;15.408;2023-05-20T04:34:01;5.5;;;5.0;;
23252;SDS011;11795;47.054;15.408;2023-05-20T04:36:02;5.5;;;5.0;;
23252;SDS011;11795;47.054;15.408;2023-05-20T04:38:01;4.8;;;4.4;;
23252;SDS011;11795;47.054;15.408;2023-05-20T04:40:06;4.8;;;4.4;;
23252;SDS011;11795;47.054;15.408;2023-05-20T04:42:01;5.0;;;4.6;;
23252;SDS011;11795;47.054;15.408;2023-05-20T04:44:01;5.0;;;4.6;;
23252;SDS011;11795;47.054;15.408;2023-05-20T04:46:00;5.0;;;4.6;;
23252;SDS011;11795;47.054;15.408;2023-05-20T04:48:00;4.6;;;4.1;;
23252;SDS011;11795;47.054;15.408;2023-05-20T04:50:00;4.6;;;4.1;;
23252;SDS011;11795;47.054;15.408;2023-05-20T04:52:00;5.2;;;4.4;;
23252;SDS011;11795;47.054;15.408;2023-05-20T04:54:00;5.2;;;4.4;;
23252;SDS011;11795;47.054;15.408;2023-05-20T04:56:00;5.2;;;4.4;;
23252;SDS011;11795;47.054;15.408;2023-05-20T04:58:01;4.6;;;4.2;;
23252;SDS011;11795;47.054;15.408;2023-05-20T05:00:01;4.6;;;4.2;;
23252;SDS011;11795;47.054;15.408;2023-05-20T05:02:00;4.7;;;4.3;;
23252;SDS011;11795;47.054;15.408;2023-05-20T05:04:00;4.7;;;4.3;;
23252;SDS011;11795;47.054;15.408;2023-05-20T05:06:00;4.7;;;4.3;;
23252;SDS011;11795;47.054;15.408;2023-05-20T05:08:00;4.9;;;4.5;;
23252;SDS011;11795;47.054;15.408;2023-05-20T05:10:00;4.9;;;4.5;;
23252;SDS011;11795;47.054;15.408;2023-05-20T05:12:01;4.4;;;4.1;;
23252;SDS011;11795;47.054;15.408;2023-05-20T05:14:00;4.4;;;4.1;;
23252;SDS011;11795;47.054;15.408;2023-05-20T05:16:00;4.4;;;4.1;;
23252;SDS011;11795;47.054;15.408;2023-05-20T05:18:00;5.1;;;4.4;;
23252;SDS011;11795;47.054;15.408;2023-05-20T05:20:00;5.1;;;4.4;;
23252;SDS011;11795;47.054;15.408;2023-05-20T05:22:00;5.4;;;4.9;;
23252;SDS011;11795;47.054;15.408;2023-05-20T05:24:00;5.4;;;4.9;;
23252;SDS011;11795;47.054;15.408;2023-05-20T05:26:00;5.4;;;4.9;;
23252;SDS011;11795;47.054;15.408;2023-05-20T05:28:00;5.0;;;4.5;;
23252;SDS011;11795;47.054;15.408;2023-05-20T05:30:00;5.0;;;4.5;;
23252;SDS011;11795;47.054;15.408;2023-05-20T05:32:00;5.4;;;4.9;;
23252;SDS011;11795;47.054;15.408;2023-05-20T05:34:00;5.4;;;4.9;;
23252;SDS011;11795;47.054;15.408;2023-05-20T05:36:01;5.4;;;4.9;;
23252;SDS011;11795;47.054;15.408;2023-05-20T05:38:00;5.2;;;4.7;;
23252;SDS011;11795;47.054;15.408;2023-05-20T05:40:00;5.2;;;4.7;;
23252;SDS011;11795;47.054;15.408;2023-05-20T05:42:00;5.1;;;4.6;;
23252;SDS011;11795;47.054;15.408;2023-05-20T05:44:00;5.1;;;4.6;;
23252;SDS011;11795;47.054;15.408;2023-05-20T05:46:00;5.1;;;4.6;;
23252;SDS011;11795;47.054;15.408;2023-05-20T05:48:00;5.3;;;4.8;;
23252;SDS011;11795;47.054;15.408;2023-05-20T05:50:00;5.3;;;4.8;;
23252;SDS011;11795;47.054;15.408;2023-05-20T05:52:00;5.5;;;4.6;;
23252;SDS011;11795;47.054;15.408;2023-05-20T05:54:00;5.5;;;4.6;;
23252;SDS011;11795;47.054;15.408;2023-05-20T05:56:00;5.5;;;4.6;;
23252;SDS011;11795;47.054;15.408;2023-05-20T05:58:00;5.0;;;4.5;;
23252;SDS011;11795;47.054;15.408;2023-05-20T06:00:00;5.0;;;4.5;;
23252;SDS011;11795;47.054;15.408;2023-05-20T06:02:00;4.9;;;4.4;;
23252;SDS011;11795;47.054;15.408;2023-05-20T06:04:00;4.9;;;4.4;;
23252;SDS011;11795;47.054;15.408;2023-05-20T06:06:00;4.9;;;4.4;;
23252;SDS011;11795;47.054;15.408;2023-05-20T06:08:00;4.5;;;4.1;;
23252;SDS011;11795;47.054;15.408;2023-05-20T06:10:00;4.5;;;4.1;;
23252;SDS011;11795;47.054;15.408;2023-05-20T06:12:01;5.0;;;4.4;;
23252;SDS011;11795;47.054;15.408;2023-05-20T06:14:02;5.0;;;4.4;;
23252;SDS011;11795;47.054;15.408;2023-05-20T06:16:00;5.0;;;4.4;;
23252;SDS011;11795;47.054;15.408;2023-05-20T06:18:00;5.0;;;4.5;;
23252;SDS011;11795;47.054;15.408;2023-05-20T06:20:00;5.0;;;4.5;;
23252;SDS011;11795;47.054;15.408;2023-05-20T06:22:00;4.8;;;4.3;;
23252;SDS011;11795;47.054;15.408;2023-05-20T06:24:00;4.8;;;4.3;;
23252;SDS011;11795;47.054;15.408;2023-05-20T06:26:00;4.8;;;4.3;;
23252;SDS011;11795;47.054;15.408;2023-05-20T06:28:00;4.9;;;4.4;;
23252;SDS011;11795;47.054;15.408;2023-05-20T06:30:00;4.9;;;4.4;;
23252;SDS011;11795;47.054;15.408;2023-05-20T06:32:00;5.0;;;4.5;;
23252;SDS011;11795;47.054;15.408;2023-05-20T06:34:00;5.0;;;4.5;;
23252;SDS011;11795;47.054;15.408;2023-05-20T06:36:00;5.0;;;4.5;;
23252;SDS011;11795;47.054;15.408;2023-05-20T06:38:00;4.8;;;4.4;;
23252;SDS011;11795;47.054;15.408;2023-05-20T06:40:00;4.8;;;4.4;;
23252;SDS011;11795;47.054;15.408;2023-05-20T06:42:00;5.3;;;4.8;;
23252;SDS011;11795;47.054;15.408;2023-05-20T06:44:00;5.3;;;4.8;;
23252;SDS011;11795;47.054;15.408;2023-05-20T06:46:00;5.3;;;4.8;;
23252;SDS011;11795;47.054;15.408;2023-05-20T06:48:00;5.1;;;4.6;;
23252;SDS011;11795;47.054;15.408;2023-05-20T06:50:00;5.1;;;4.6;;
23252;SDS011;11795;47.054;15.408;2023-05-20T06:52:00;4.6;;;4.2;;
23252;SDS011;11795;47.054;15.408;2023-05-20T06:54:00;4.6;;;4.2;;
23252;SDS011;11795;47.054;15.408;2023-05-20T06:56:00;4.6;;;4.2;;
23252;SDS011;11795;47.054;15.408;2023-05-20T06:58:00;4.8;;;4.4;;
23252;SDS011;11795;47.054;15.408;2023-05-20T07:00:00;4.8;;;4.4;;
23252;SDS011;11795;47.054;15.408;2023-05-20T07:02:00;5.2;;;4.7;;
23252;SDS011;11795;47.054;15.408;2023-05-20T07:04:00;5.2;;;4.7;;
23252;SDS011;11795;47.054;15.408;2023-05-20T07:06:00;5.2;;;4.7;;
23252;SDS011;11795;47.054;15.408;2023-05-20T07:08:00;5.1;;;4.7;;
23252;SDS011;11795;47.054;15.408;2023-05-20T07:10:00;5.1;;;4.7;;
23252;SDS011;11795;47.054;15.408;2023-05-20T07:12:01;5.6;;;5.1;;
23252;SDS011;11795;47.054;15.408;2023-05-20T07:14:00;5.6;;;5.1;;
23252;SDS011;11795;47.054;15.408;2023-05-20T07:16:00;5.6;;;5.1;;
23252;SDS011;11795;47.054;15.408;2023-05-20T07:18:00;5.2;;;4.7;;
23252;SDS011;11795;47.054;15.408;2023-05-20T07:20:00;5.2;;;4.7;;
23252;SDS011;11795;47.054;15.408;2023-05-20T07:22:00;5.7;;;5.1;;
23252;SDS011;11795;47.054;15.408;2023-05-20T07:24:00;5.7;;;5.1;;
23252;SDS011;11795;47.054;15.408;2023-05-20T07:26:00;5.7;;;5.1;;
23252;SDS011;11795;47.054;15.408;2023-05-20T07:28:00;4.2;;;3.8;;
23252;SDS011;11795;47.054;15.408;2023-05-20T07:30:00;4.2;;;3.8;;
23252;SDS011;11795;47.054;15.408;2023-05-20T07:32:00;5.3;;;4.8;;
23252;SDS011;11795;47.054;15.408;2023-05-20T07:34:00;5.3;;;4.8;;
23252;SDS011;11795;47.054;15.408;2023-05-20T07:36:00;5.3;;;4.8;;
23252;SDS011;11795;47.054;15.408;2023-05-20T07:38:00;5.8;;;4.9;;
23252;SDS011;11795;47.054;15.408;2023-05-20T07:40:00;5.8;;;4.9;;
23252;SDS011;11795;47.054;15.408;2023-05-20T07:42:00;5.8;;;4.8;;
23252;SDS011;11795;47.054;15.408;2023-05-20T07:44:00;5.8;;;4.8;;
23252;SDS011;11795;47.054;15.408;2023-05-20T07:46:00;5.8;;;4.8;;
23252;SDS011;11795;47.054;15.408;2023-05-20T07:48:00;5.4;;;4.9;;
23252;SDS011;11795;47.054;15.408;2023-05-20T07:50:00;5.4;;;4.9;;
23252;SDS011;11795;47.054;15.408;2023-05-20T07:52:00;5.7;;;5.2;;
23252;SDS011;11795;47.054;15.408;2023-05-20T07:54:00;5.7;;;5.2;;
23252;SDS011;11795;47.054;15.408;2023-05-20T07:56:00;5.7;;;5.2;;
23252;SDS011;11795;47.054;15.408;2023-05-20T07:58:00;5.1;;;4.6;;
23252;SDS011;11795;47.054;15.408;2023-05-20T08:00:00;5.1;;;4.6;;
23252;SDS011;11795;47.054;15.408;2023-05-20T08:02:00;5.0;;;4.6;;
23252;SDS011;11795;47.054;15.408;2023-05-20T08:04:00;5.0;;;4.6;;
23252;SDS011;11795;47.054;15.408;2023-05-20T08:06:00;5.0;;;4.6;;
23252;SDS011;11795;47.054;15.408;2023-05-20T08:08:00;4.9;;;4.5;;
23252;SDS011;11795;47.054;15.408;2023-05-20T08:10:00;4.9;;;4.5;;
23252;SDS011;11795;47.054;15.408;2023-05-20T08:12:00;4.9;;;4.5;;
23252;SDS011;11795;47.054;15.408;2023-05-20T08:14:01;7.4;;;6.7;;
23252;SDS011;11795;47.054;15.408;2023-05-20T08:16:00;7.4;;;6.7;;
23252;SDS011;11795;47.054;15.408;2023-05-20T08:18:00;6.1;;;5.6;;
23252;SDS011;11795;47.054;15.408;2023-05-20T08:20:00;6.1;;;5.6;;
23252;SDS011;11795;47.054;15.408;2023-05-20T08:22:00;6.1;;;5.6;;
23252;SDS011;11795;47.054;15.408;2023-05-20T08:24:00;5.6;;;5.0;;
23252;SDS011;11795;47.054;15.408;2023-05-20T08:26:01;5.6;;;5.0;;
23252;SDS011;11795;47.054;15.408;2023-05-20T08:28:00;7.2;;;5.5;;
23252;SDS011;11795;47.054;15.408;2023-05-20T08:30:00;7.2;;;5.5;;
23252;SDS011;11795;47.054;15.408;2023-05-20T08:32:00;7.2;;;5.5;;
23252;SDS011;11795;47.054;15.408;2023-05-20T08:34:00;5.3;;;4.8;;
23252;SDS011;11795;47.054;15.408;2023-05-20T08:36:00;5.3;;;4.8;;
23252;SDS011;11795;47.054;15.408;2023-05-20T08:38:01;6.2;;;5.7;;
23252;SDS011;11795;47.054;15.408;2023-05-20T08:40:00;6.2;;;5.7;;
23252;SDS011;11795;47.054;15.408;2023-05-20T08:42:00;6.2;;;5.7;;
23252;SDS011;11795;47.054;15.408;2023-05-20T08:44:00;6.0;;;5.4;;
23252;SDS011;11795;47.054;15.408;2023-05-20T08:46:02;6.0;;;5.4;;
23252;SDS011;11795;47.054;15.408;2023-05-20T08:48:00;5.6;;;5.0;;
23252;SDS011;11795;47.054;15.408;2023-05-20T08:50:00;5.6;;;5.0;;
23252;SDS011;11795;47.054;15.408;2023-05-20T08:52:00;5.6;;;5.0;;
23252;SDS011;11795;47.054;15.408;2023-05-20T08:54:00;5.7;;;5.1;;
23252;SDS011;11795;47.054;15.408;2023-05-20T08:56:02;5.7;;;5.1;;
23252;SDS011;11795;47.054;15.408;2023-05-20T08:58:01;5.9;;;4.9;;
23252;SDS011;11795;47.054;15.408;2023-05-20T09:00:00;5.9;;;4.9;;
23252;SDS011;11795;47.054;15.408;2023-05-20T09:02:00;5.9;;;4.9;;
23252;SDS011;11795;47.054;15.408;2023-05-20T09:04:00;4.8;;;4.3;;
23252;SDS011;11795;47.054;15.408;2023-05-20T09:06:03;4.8;;;4.3;;
23252;SDS011;11795;47.054;15.408;2023-05-20T09:08:04;4.7;;;4.2;;
23252;SDS011;11795;47.054;15.408;2023-05-20T09:10:00;4.7;;;4.2;;
23252;SDS011;11795;47.054;15.408;2023-05-20T09:12:00;4.7;;;4.2;;
23252;SDS011;11795;47.054;15.408;2023-05-20T09:14:00;5.8;;;5.0;;
23252;SDS011;11795;47.054;15.408;2023-05-20T09:16:00;5.8;;;5.0;;
23252;SDS011;11795;47.054;15.408;2023-05-20T09:18:01;6.0;;;5.5;;
23252;SDS011;11795;47.054;15.408;2023-05-20T09:20:00;6.0;;;5.5;;
23252;SDS011;11795;47.054;15.408;2023-05-20T09:22:00;6.0;;;5.5;;
23252;SDS011;11795;47.054;15.408;2023-05-20T09:24:00;5.7;;;5.2;;
23252;SDS011;11795;47.054;15.408;2023-05-20T09:26:01;5.7;;;5.2;;
23252;SDS011;11795;47.054;15.408;2023-05-20T09:28:01;6.1;;;5.6;;
23252;SDS011;11795;47.054;15.408;2023-05-20T09:30:00;6.1;;;5.6;;
23252;SDS011;11795;47.054;15.408;2023-05-20T09:32:00;6.1;;;5.6;;
23252;SDS011;11795;47.054;15.408;2023-05-20T09:34:00;5.0;;;4.5;;
23252;SDS011;11795;47.054;15.408;2023-05-20T09:36:01;5.0;;;4.5;;
23252;SDS011;11795;47.054;15.408;2023-05-20T09:38:00;5.7;;;5.2;;
23252;SDS011;11795;47.054;15.408;2023-05-20T09:40:02;5.7;;;5.2;;
23252;SDS011;11795;47.054;15.408;2023-05-20T09:42:01;5.7;;;5.2;;
23252;SDS011;11795;47.054;15.408;2023-05-20T09:44:00;5.4;;;4.9;;
23252;SDS011;11795;47.054;15.408;2023-05-20T09:46:00;5.4;;;4.9;;
23252;SDS011;11795;47.054;15.408;2023-05-20T09:48:00;5.6;;;5.0;;
23252;SDS011;11795;47.054;15.408;2023-05-20T09:50:02;5.6;;;5.0;;
23252;SDS011;11795;47.054;15.408;2023-05-20T09:52:00;5.6;;;5.0;;
23252;SDS011;11795;47.054;15.408;2023-05-20T09:54:00;5.6;;;5.0;;
23252;SDS011;11795;47.054;15.408;2023-05-20T09:56:00;5.6;;;5.0;;
23252;SDS011;11795;47.054;15.408;2023-05-20T09:58:01;5.8;;;5.2;;
23252;SDS011;11795;47.054;15.408;2023-05-20T10:00:00;5.8;;;5.2;;
23252;SDS011;11795;47.054;15.408;2023-05-20T10:02:00;5.8;;;5.2;;
23252;SDS011;11795;47.054;15.408;2023-05-20T10:04:00;5.8;;;4.9;;
23252;SDS011;11795;47.054;15.408;2023-05-20T10:06:06;5.8;;;4.9;;
23252;SDS011;11795;47.054;15.408;2023-05-20T10:08:10;5.6;;;5.1;;
23252;SDS011;11795;47.054;15.408;2023-05-20T10:10:02;5.6;;;5.1;;
23252;SDS011;11795;47.054;15.408;2023-05-20T10:12:04;5.6;;;5.1;;
23252;SDS011;11795;47.054;15.408;2023-05-20T10:14:06;5.4;;;4.9;;
23252;SDS011;11795;47.054;15.408;2023-05-20T10:16:02;5.4;;;4.9;;
23252;SDS011;11795;47.054;15.408;2023-05-20T10:18:02;5.6;;;5.0;;
23252;SDS011;11795;47.054;15.408;2023-05-20T10:20:00;5.6;;;5.0;;
23252;SDS011;11795;47.054;15.408;2023-05-20T10:22:01;5.6;;;5.0;;
23252;SDS011;11795;47.054;15.408;2023-05-20T10:24:08;5.3;;;4.8;;
23252;SDS011;11795;47.054;15.408;2023-05-20T10:26:04;5.3;;;4.8;;
23252;SDS011;11795;47.054;15.408;2023-05-20T10:28:04;5.6;;;5.1;;
23252;SDS011;11795;47.054;15.408;2023-05-20T10:30:00;5.6;;;5.1;;
23252;SDS011;11795;47.054;15.408;2023-05-20T10:32:00;5.6;;;5.1;;
23252;SDS011;11795;47.054;15.408;2023-05-20T10:34:00;5.3;;;4.8;;
23252;SDS011;11795;47.054;15.408;2023-05-20T10:36:01;5.3;;;4.8;;
23252;SDS011;11795;47.054;15.408;2023-05-20T10:38:08;5.4;;;4.6;;
23252;SDS011;11795;47.054;15.408;2023-05-20T10:40:02;5.4;;;4.6;;
23252;SDS011;11795;47.054;15.408;2023-05-20T10:42:07;5.4;;;4.6;;
23252;SDS011;11795;47.054;15.408;2023-05-20T10:44:01;5.3;;;4.8;;
23252;SDS011;11795;47.054;15.408;2023-05-20T10:46:00;5.3;;;4.8;;
23252;SDS011;11795;47.054;15.408;2023-05-20T10:48:00;5.9;;;4.9;;
23252;SDS011;11795;47.054;15.408;2023-05-20T10:50:01;5.9;;;4.9;;
23252;SDS011;11795;47.054;15.408;2023-05-20T10:52:00;5.9;;;4.9;;
23252;SDS011;11795;47.054;15.408;2023-05-20T10:54:00;5.6;;;5.1;;
23252;SDS011;11795;47.054;15.408;2023-05-20T10:56:00;5.6;;;5.1;;
23252;SDS011;11795;47.054;15.408;2023-05-20T10:58:00;6.2;;;4.9;;
23252;SDS011;11795;47.054;15.408;2023-05-20T11:00:00;6.2;;;4.9;;
23252;SDS011;11795;47.054;15.408;2023-05-20T11:02:00;6.2;;;4.9;;
23252;SDS011;11795;47.054;15.408;2023-05-20T11:04:03;5.2;;;4.8;;
23252;SDS011;11795;47.054;15.408;2023-05-20T11:06:00;5.2;;;4.8;;
23252;SDS011;11795;47.054;15.408;2023-05-20T11:08:01;5.4;;;4.8;;
23252;SDS011;11795;47.054;15.408;2023-05-20T11:10:00;5.4;;;4.8;;
23252;SDS011;11795;47.054;15.408;2023-05-20T11:12:00;5.4;;;4.8;;
23252;SDS011;11795;47.054;15.408;2023-05-20T11:14:00;5.5;;;4.9;;
23252;SDS011;11795;47.054;15.408;2023-05-20T11:16:00;5.5;;;4.9;;
23252;SDS011;11795;47.054;15.408;2023-05-20T11:18:00;5.2;;;4.8;;
23252;SDS011;11795;47.054;15.408;2023-05-20T11:20:01;5.2;;;4.8;;
23252;SDS011;11795;47.054;15.408;2023-05-20T11:22:00;5.2;;;4.8;;
23252;SDS011;11795;47.054;15.408;2023-05-20T11:24:00;5.5;;;4.8;;
23252;SDS011;11795;47.054;15.408;2023-05-20T11:26:00;5.5;;;4.8;;
23252;SDS011;11795;47.054;15.408;2023-05-20T11:28:00;5.7;;;5.0;;
23252;SDS011;11795;47.054;15.408;2023-05-20T11:30:01;5.7;;;5.0;;
23252;SDS011;11795;47.054;15.408;2023-05-20T11:32:00;5.7;;;5.0;;
23252;SDS011;11795;47.054;15.408;2023-05-20T11:34:00;7.9;;;5.5;;
23252;SDS011;11795;47.054;15.408;2023-05-20T11:36:00;7.9;;;5.5;;
23252;SDS011;11795;47.054;15.408;2023-05-20T11:38:01;5.2;;;4.8;;
23252;SDS011;11795;47.054;15.408;2023-05-20T11:40:02;5.2;;;4.8;;
23252;SDS011;11795;47.054;15.408;2023-05-20T11:42:00;5.2;;;4.8;;
23252;SDS011;11795;47.054;15.408;2023-05-20T11:44:00;5.8;;;5.3;;
23252;SDS011;11795;47.054;15.408;2023-05-20T11:46:00;5.8;;;5.3;;
23252;SDS011;11795;47.054;15.408;2023-05-20T11:48:00;5.9;;;5.3;;
23252;SDS011;11795;47.054;15.408;2023-05-20T11:50:00;5.9;;;5.3;;
23252;SDS011;11795;47.054;15.408;2023-05-20T11:52:01;5.9;;;5.3;;
23252;SDS011;11795;47.054;15.408;2023-05-20T11:54:00;5.7;;;5.2;;
23252;SDS011;11795;47.054;15.408;2023-05-20T11:56:00;5.7;;;5.2;;
23252;SDS011;11795;47.054;15.408;2023-05-20T11:58:00;5.6;;;5.1;;
23252;SDS011;11795;47.054;15.408;2023-05-20T12:00:00;5.6;;;5.1;;
23252;SDS011;11795;47.054;15.408;2023-05-20T12:02:00;5.6;;;5.1;;
23252;SDS011;11795;47.054;15.408;2023-05-20T12:04:00;6.2;;;5.6;;
23252;SDS011;11795;47.054;15.408;2023-05-20T12:06:00;6.2;;;5.6;;
23252;SDS011;11795;47.054;15.408;2023-05-20T12:08:00;6.2;;;5.6;;
23252;SDS011;11795;47.054;15.408;2023-05-20T12:10:01;5.9;;;5.4;;
23252;SDS011;11795;47.054;15.408;2023-05-20T12:12:01;5.9;;;5.4;;